Porosity — WDF7776 — position and weather

sailwx.info

Track history (hours):
 
Tides and Currents Weather Stations Pressure Air Temp Water Temp Dewpoint Dewpoint Depression Visibility Wind Speed Wind Dir Waves Ship Positions

Porosity

Owner: Bahlburg, Bill, plano, TX. More information available from US FCC via Universal Licensing System and Coast Guard Vessel Documentation Center.

Last reported at 2016-Jun-08 01:30 UTC. Time now 2016-Jun-29 05:44 UTC.
Position N 47°38' W 122°20'.
Warning: this ship's position is 21 days out of date.

Length 19 m.

Type: Pleasure craft. MMSI: 367488010.

Date/timePositionNaut miles runAvg speedWind from/ knotsBaromVisibWave heightAir tempDewpointWater temp
2016-Jun-08 01:30N 47°38' W 122°20'3 2.8
2016-Jun-08 00:30N 47°40' W 122°24'1 0.8
2016-Jun-07 23:33N 47°40' W 122°25'5 5.2
2016-Jun-07 22:34N 47°46' W 122°25'46 7.6
2016-Jun-07 16:31N 48°26' W 122°57'6 6.3
2016-Jun-07 15:32N 48°32' W 123°01'0 0.0
2016-Jun-07 14:32N 48°32' W 123°01'0 0.0
2016-Jun-07 13:32N 48°32' W 123°01'0 0.0
2016-Jun-07 12:32N 48°32' W 123°01'0 0.0
2016-Jun-07 11:29N 48°32' W 123°01'0 0.0
2016-Jun-07 10:29N 48°32' W 123°01'0 0.0
2016-Jun-07 09:23N 48°32' W 123°01'0 0.0
2016-Jun-07 08:32N 48°32' W 123°01'0 0.0
2016-Jun-07 07:29N 48°32' W 123°01'0 0.0
2016-Jun-07 06:23N 48°32' W 123°01'0 0.0
2016-Jun-07 05:29N 48°32' W 123°01'0 0.0
2016-Jun-07 04:29N 48°32' W 123°01'0 0.0
2016-Jun-07 03:32N 48°32' W 123°01'0 0.0
2016-Jun-07 02:29N 48°32' W 123°01'0 0.0
2016-Jun-07 01:32N 48°32' W 123°01'0 0.0
2016-Jun-07 00:32N 48°32' W 123°01'0 0.0
2016-Jun-06 23:29N 48°32' W 123°01'0 0.0
2016-Jun-06 22:32N 48°32' W 123°01'0 0.2
2016-Jun-06 21:33N 48°32' W 123°01'  
Track history (hours):
 
Tides and Currents Weather Stations Pressure Air Temp Water Temp Dewpoint Dewpoint Depression Visibility Wind Speed Wind Dir Waves Ship Positions

Porosity

Owner: Bahlburg, Bill, plano, TX. More information available from US FCC via Universal Licensing System and Coast Guard Vessel Documentation Center.

Last reported at 2016-Jun-08 01:30 UTC. Time now 2016-Jun-29 05:44 UTC.
Position N 47°38' W 122°20'.
Warning: this ship's position is 21 days out of date.

Length 19 m.

Type: Pleasure craft. MMSI: 367488010.

Date/timePositionNaut miles runAvg speedWind from/ knotsBaromVisibWave heightAir tempDewpointWater temp
2016-Jun-08 01:30N 47°38' W 122°20'3 2.8
2016-Jun-08 00:30N 47°40' W 122°24'1 0.8
2016-Jun-07 23:33N 47°40' W 122°25'5 5.2
2016-Jun-07 22:34N 47°46' W 122°25'46 7.6
2016-Jun-07 16:31N 48°26' W 122°57'6 6.3
2016-Jun-07 15:32N 48°32' W 123°01'0 0.0
2016-Jun-07 14:32N 48°32' W 123°01'0 0.0
2016-Jun-07 13:32N 48°32' W 123°01'0 0.0
2016-Jun-07 12:32N 48°32' W 123°01'0 0.0
2016-Jun-07 11:29N 48°32' W 123°01'0 0.0
2016-Jun-07 10:29N 48°32' W 123°01'0 0.0
2016-Jun-07 09:23N 48°32' W 123°01'0 0.0
2016-Jun-07 08:32N 48°32' W 123°01'0 0.0
2016-Jun-07 07:29N 48°32' W 123°01'0 0.0
2016-Jun-07 06:23N 48°32' W 123°01'0 0.0
2016-Jun-07 05:29N 48°32' W 123°01'0 0.0
2016-Jun-07 04:29N 48°32' W 123°01'0 0.0
2016-Jun-07 03:32N 48°32' W 123°01'0 0.0
2016-Jun-07 02:29N 48°32' W 123°01'0 0.0
2016-Jun-07 01:32N 48°32' W 123°01'0 0.0
2016-Jun-07 00:32N 48°32' W 123°01'0 0.0
2016-Jun-06 23:29N 48°32' W 123°01'0 0.0
2016-Jun-06 22:32N 48°32' W 123°01'0 0.2
2016-Jun-06 21:33N 48°32' W 123°01'  

Dump ship's entire track history